createdAt,value
2022-09-15T00:01:19.790Z,13.31
2022-09-15T00:03:48.536Z,13.29
2022-09-15T00:06:17.153Z,13.29
2022-09-15T00:08:45.143Z,13.25
2022-09-15T00:11:19.752Z,13.25
2022-09-15T00:13:47.374Z,13.20
2022-09-15T00:16:18.132Z,13.15
2022-09-15T00:18:46.566Z,13.08
2022-09-15T00:21:22.574Z,13.01
2022-09-15T00:23:51.493Z,12.96
2022-09-15T00:26:24.926Z,12.97
2022-09-15T00:28:53.389Z,12.94
2022-09-15T00:31:24.210Z,12.94
2022-09-15T00:33:55.629Z,12.95
2022-09-15T00:36:24.296Z,12.94
2022-09-15T00:38:52.394Z,12.94
2022-09-15T00:41:23.054Z,12.95
2022-09-15T00:44:01.341Z,12.94
2022-09-15T00:46:39.019Z,12.94
2022-09-15T00:49:16.152Z,12.96
2022-09-15T00:52:08.762Z,12.96
2022-09-15T00:55:10.203Z,12.94
2022-09-15T00:58:03.551Z,12.95
2022-09-15T01:00:31.238Z,12.90
2022-09-15T01:02:59.793Z,12.86
2022-09-15T01:05:38.256Z,12.85
2022-09-15T01:08:11.841Z,12.82
2022-09-15T01:10:41.555Z,12.79
2022-09-15T01:13:14.620Z,12.78
2022-09-15T01:16:16.475Z,12.80
2022-09-15T01:19:16.381Z,12.81
2022-09-15T01:22:22.637Z,12.82
2022-09-15T01:25:29.958Z,12.79
2022-09-15T01:28:44.462Z,12.77
2022-09-15T01:32:05.873Z,12.77
2022-09-15T01:34:45.022Z,12.83
2022-09-15T01:37:24.165Z,12.82
2022-09-15T01:39:54.426Z,12.85
2022-09-15T01:42:26.526Z,12.84
2022-09-15T01:45:03.858Z,12.82
2022-09-15T01:47:35.218Z,12.78
2022-09-15T01:50:16.230Z,12.77
2022-09-15T01:52:49.680Z,12.73
2022-09-15T01:55:52.187Z,12.71
2022-09-15T01:58:21.265Z,12.77
2022-09-15T02:00:59.282Z,12.81
2022-09-15T02:03:55.403Z,12.87
2022-09-15T02:06:33.758Z,12.92
2022-09-15T02:09:12.727Z,12.92
2022-09-15T02:12:07.734Z,12.92
2022-09-15T02:15:14.962Z,12.97
2022-09-15T02:17:47.701Z,12.88
2022-09-15T02:20:29.776Z,12.83
2022-09-15T02:23:08.514Z,12.81
2022-09-15T02:25:48.064Z,12.81
2022-09-15T02:28:21.609Z,12.85
2022-09-15T02:30:52.911Z,12.83
2022-09-15T02:33:24.125Z,12.83
2022-09-15T02:35:52.693Z,12.81
2022-09-15T02:38:21.593Z,12.78
2022-09-15T02:40:49.393Z,12.76
2022-09-15T02:43:18.726Z,12.78
2022-09-15T02:45:46.715Z,12.78
2022-09-15T02:48:14.601Z,12.80
2022-09-15T02:50:42.374Z,12.82
2022-09-15T02:53:10.030Z,12.83
2022-09-15T02:55:37.973Z,12.82
2022-09-15T02:58:05.755Z,12.85
2022-09-15T03:00:33.530Z,12.83
2022-09-15T03:03:01.256Z,12.85
2022-09-15T03:05:30.441Z,12.84
2022-09-15T03:07:58.166Z,12.85
2022-09-15T03:10:26.593Z,12.86
2022-09-15T03:12:54.981Z,12.85
2022-09-15T03:15:26.175Z,12.84
2022-09-15T03:17:54.773Z,12.84
2022-09-15T03:20:28.573Z,12.88
2022-09-15T03:22:56.751Z,12.89
2022-09-15T03:25:26.819Z,12.91
2022-09-15T03:27:54.520Z,12.93
2022-09-15T03:30:22.145Z,12.98
2022-09-15T03:32:50.056Z,13.01
2022-09-15T03:35:17.929Z,13.04
2022-09-15T03:37:45.856Z,13.08
2022-09-15T03:40:14.300Z,13.09
2022-09-15T03:42:42.575Z,13.08
2022-09-15T03:45:10.235Z,13.08
2022-09-15T03:47:37.946Z,13.10
2022-09-15T03:50:06.908Z,13.14
2022-09-15T03:52:34.611Z,13.14
2022-09-15T03:55:02.254Z,13.14
2022-09-15T03:57:30.479Z,13.17
2022-09-15T03:59:58.078Z,13.19
2022-09-15T04:02:25.758Z,13.17
2022-09-15T04:04:53.436Z,13.18
2022-09-15T04:07:21.068Z,13.21
2022-09-15T04:09:48.663Z,13.22
2022-09-15T04:12:16.735Z,13.27
2022-09-15T04:14:44.423Z,13.26
2022-09-15T04:17:12.049Z,13.28
2022-09-15T04:19:40.649Z,13.30
2022-09-15T04:22:08.293Z,13.34
2022-09-15T04:24:35.927Z,13.31
2022-09-15T04:27:03.974Z,13.32
2022-09-15T04:29:31.617Z,13.31
2022-09-15T04:31:59.282Z,13.31
2022-09-15T04:34:26.923Z,13.31
2022-09-15T04:36:54.515Z,13.35
2022-09-15T04:39:22.441Z,13.36
2022-09-15T04:41:50.109Z,13.35
2022-09-15T04:44:18.236Z,13.38
2022-09-15T04:46:46.052Z,13.42
2022-09-15T04:49:15.081Z,13.40
2022-09-15T04:51:42.808Z,13.40
2022-09-15T04:54:10.843Z,13.39
2022-09-15T04:56:39.478Z,13.37
2022-09-15T04:59:15.798Z,13.41
2022-09-15T05:01:44.183Z,13.44
2022-09-15T05:04:12.457Z,13.43
2022-09-15T05:06:40.330Z,13.42
2022-09-15T05:09:10.417Z,13.47
2022-09-15T05:11:38.647Z,13.51
2022-09-15T05:14:07.999Z,13.52
2022-09-15T05:16:36.163Z,13.52
2022-09-15T05:19:04.694Z,13.54
2022-09-15T05:21:32.899Z,13.54
2022-09-15T05:24:00.754Z,13.56
2022-09-15T05:26:30.148Z,13.56
2022-09-15T05:28:58.548Z,13.57
2022-09-15T05:31:36.686Z,13.60
2022-09-15T05:34:06.248Z,13.63
2022-09-15T05:36:34.359Z,13.63
2022-09-15T05:39:02.256Z,13.62
2022-09-15T05:41:30.869Z,13.61
2022-09-15T05:43:59.183Z,13.62
2022-09-15T05:46:29.086Z,13.63
2022-09-15T05:48:59.018Z,13.65
2022-09-15T05:51:26.787Z,13.65
2022-09-15T05:53:54.589Z,13.66
2022-09-15T05:56:22.476Z,13.67
2022-09-15T05:58:50.231Z,13.67
2022-09-15T06:01:22.259Z,13.68
2022-09-15T06:03:50.613Z,13.67
2022-09-15T06:06:19.614Z,13.69
2022-09-15T06:08:55.390Z,13.70
2022-09-15T06:11:29.040Z,13.73
2022-09-15T06:14:03.287Z,13.75
2022-09-15T06:16:34.733Z,13.79
2022-09-15T06:19:03.373Z,13.81
2022-09-15T06:21:33.055Z,13.85
2022-09-15T06:24:06.316Z,13.90
2022-09-15T06:26:34.744Z,13.91
2022-09-15T06:29:05.084Z,13.90
2022-09-15T06:31:34.279Z,13.94
2022-09-15T06:34:03.976Z,13.98
2022-09-15T06:36:32.156Z,14.03
2022-09-15T06:39:00.374Z,14.07
2022-09-15T06:41:47.434Z,14.09
2022-09-15T06:44:19.858Z,14.11
2022-09-15T06:46:49.288Z,14.14
2022-09-15T06:49:17.587Z,14.17
2022-09-15T06:51:45.362Z,14.19
2022-09-15T06:54:15.943Z,14.19
2022-09-15T06:56:44.494Z,14.21
2022-09-15T06:59:14.457Z,14.27
2022-09-15T07:01:46.730Z,14.26
2022-09-15T07:04:14.394Z,14.23
2022-09-15T07:06:42.012Z,14.23
2022-09-15T07:09:11.810Z,14.23
2022-09-15T07:11:39.865Z,14.22
2022-09-15T07:14:07.855Z,14.20
2022-09-15T07:16:35.653Z,14.20
2022-09-15T07:19:05.752Z,14.21
2022-09-15T07:21:34.189Z,14.27
2022-09-15T07:24:06.410Z,14.31
2022-09-15T07:26:35.343Z,14.35
2022-09-15T07:29:06.822Z,14.39
2022-09-15T07:31:37.973Z,14.45
2022-09-15T07:34:07.032Z,14.53
2022-09-15T07:36:35.138Z,14.56
2022-09-15T07:39:04.914Z,14.55
2022-09-15T07:41:33.428Z,14.56
2022-09-15T07:44:01.557Z,14.59
2022-09-15T07:46:32.401Z,14.63
2022-09-15T07:49:03.082Z,14.67
2022-09-15T07:51:31.151Z,14.73
2022-09-15T07:53:59.623Z,14.78
2022-09-15T07:56:27.462Z,14.80
2022-09-15T07:58:55.059Z,14.85
2022-09-15T08:01:22.838Z,14.92
2022-09-15T08:03:52.633Z,15.01
2022-09-15T08:06:24.139Z,15.08
2022-09-15T08:08:57.766Z,15.16
2022-09-15T08:11:29.073Z,15.25
2022-09-15T08:14:01.258Z,15.31
2022-09-15T08:16:29.195Z,15.36
2022-09-15T08:18:57.030Z,15.42
2022-09-15T08:21:24.869Z,15.47
2022-09-15T08:23:56.792Z,15.52
2022-09-15T08:26:26.696Z,15.60
2022-09-15T08:28:54.592Z,15.71
2022-09-15T08:31:24.166Z,15.82
2022-09-15T08:33:55.034Z,15.91
2022-09-15T08:36:24.480Z,15.97
2022-09-15T08:38:52.143Z,16.06
2022-09-15T08:41:46.727Z,16.08
2022-09-15T08:44:49.237Z,16.10
2022-09-15T08:47:25.965Z,16.20
2022-09-15T08:50:22.911Z,16.23
2022-09-15T08:52:55.603Z,16.28
2022-09-15T08:55:50.767Z,16.33
2022-09-15T08:58:22.875Z,16.35
2022-09-15T09:01:03.972Z,16.36
2022-09-15T09:03:49.645Z,16.47
2022-09-15T09:06:35.601Z,16.48
2022-09-15T09:09:18.509Z,16.56
2022-09-15T09:12:26.398Z,16.73
2022-09-15T09:15:15.932Z,16.76
2022-09-15T09:18:16.573Z,16.75
2022-09-15T09:21:18.390Z,16.84
2022-09-15T09:24:01.162Z,16.99
2022-09-15T09:26:33.122Z,17.03
2022-09-15T09:29:11.848Z,17.02
2022-09-15T09:31:41.766Z,17.02
2022-09-15T09:34:20.662Z,17.11
2022-09-15T09:37:00.117Z,17.15
2022-09-15T09:39:28.619Z,17.24
2022-09-15T09:41:56.895Z,17.31
2022-09-15T09:44:31.778Z,17.30
2022-09-15T09:47:01.513Z,17.32
2022-09-15T09:49:43.166Z,17.41
2022-09-15T09:52:11.046Z,17.55
2022-09-15T09:54:39.273Z,17.54
2022-09-15T09:57:13.286Z,17.48
2022-09-15T09:59:47.701Z,17.48
2022-09-15T10:02:19.084Z,17.47
2022-09-15T10:05:12.227Z,17.49
2022-09-15T10:07:45.764Z,17.58
2022-09-15T10:10:28.664Z,17.57
2022-09-15T10:12:56.955Z,17.53
2022-09-15T10:15:32.174Z,17.63
2022-09-15T10:18:01.374Z,17.86
2022-09-15T10:20:48.105Z,17.99
2022-09-15T10:23:18.408Z,18.05
2022-09-15T10:26:01.578Z,18.16
2022-09-15T10:28:29.298Z,18.17
2022-09-15T10:31:03.901Z,18.15
2022-09-15T10:33:35.242Z,18.05
2022-09-15T10:36:05.680Z,18.10
2022-09-15T10:39:00.068Z,18.12
2022-09-15T10:41:31.361Z,18.16
2022-09-15T10:44:33.901Z,18.25
2022-09-15T10:47:24.044Z,18.25
2022-09-15T10:50:28.225Z,18.18
2022-09-15T10:53:26.447Z,18.16
2022-09-15T10:56:26.149Z,18.28
2022-09-15T10:59:09.475Z,18.38
2022-09-15T11:01:45.743Z,18.46
2022-09-15T11:04:50.727Z,18.55
2022-09-15T11:08:11.934Z,18.65
2022-09-15T11:10:55.706Z,18.57
2022-09-15T11:13:56.680Z,18.56
2022-09-15T11:16:38.704Z,18.52
2022-09-15T11:19:27.521Z,18.64
2022-09-15T11:22:05.204Z,18.72
2022-09-15T11:24:48.318Z,18.77
2022-09-15T11:27:29.831Z,18.89
2022-09-15T11:30:20.039Z,18.91
2022-09-15T11:33:22.911Z,18.98
2022-09-15T11:36:02.567Z,19.13
2022-09-15T11:38:55.461Z,19.23
2022-09-15T11:41:45.822Z,19.17
2022-09-15T11:44:20.370Z,19.12
2022-09-15T11:47:22.306Z,19.17
2022-09-15T11:50:20.025Z,19.29
2022-09-15T11:53:06.646Z,19.44
2022-09-15T11:55:44.499Z,19.55
2022-09-15T11:58:29.372Z,19.66
2022-09-15T12:01:04.269Z,19.66
2022-09-15T12:03:52.755Z,19.63
2022-09-15T12:06:45.911Z,19.57
2022-09-15T12:09:20.471Z,19.51
2022-09-15T12:11:54.341Z,19.42
2022-09-15T12:14:35.446Z,19.45
2022-09-15T12:17:05.516Z,19.43
2022-09-15T12:19:36.263Z,19.29
2022-09-15T12:22:23.623Z,19.22
2022-09-15T12:25:03.664Z,19.21
2022-09-15T12:27:31.450Z,19.20
2022-09-15T12:30:00.914Z,19.18
2022-09-15T12:32:34.820Z,19.16
2022-09-15T12:35:19.969Z,19.21
2022-09-15T12:37:54.103Z,19.27
2022-09-15T12:40:37.430Z,19.30
2022-09-15T12:43:11.387Z,19.28
2022-09-15T12:45:52.547Z,19.20
2022-09-15T12:48:32.426Z,19.10
2022-09-15T12:51:10.330Z,19.03
2022-09-15T12:53:58.578Z,19.03
2022-09-15T12:56:33.419Z,19.03
2022-09-15T12:59:07.163Z,18.98
2022-09-15T13:01:50.429Z,19.01
2022-09-15T13:04:43.592Z,19.03
2022-09-15T13:07:19.948Z,19.00
2022-09-15T13:10:27.690Z,19.08
2022-09-15T13:13:17.933Z,19.15
2022-09-15T13:15:50.573Z,19.15
2022-09-15T13:18:20.901Z,19.13
2022-09-15T13:21:05.375Z,19.10
2022-09-15T13:23:41.618Z,19.00
2022-09-15T13:26:17.774Z,18.85
2022-09-15T13:28:48.756Z,18.69
2022-09-15T13:31:50.878Z,18.55
2022-09-15T13:35:05.205Z,18.43
2022-09-15T13:38:22.981Z,18.38
2022-09-15T13:41:05.281Z,18.42
2022-09-15T13:43:41.008Z,18.44
2022-09-15T13:46:35.948Z,18.52
2022-09-15T13:49:32.810Z,18.64
2022-09-15T13:52:42.037Z,18.69
2022-09-15T13:55:27.885Z,18.77
2022-09-15T14:01:06.912Z,18.82
2022-09-15T14:04:00.704Z,18.80
2022-09-15T14:06:35.061Z,18.91
2022-09-15T14:09:18.076Z,19.02
2022-09-15T14:11:53.114Z,19.08
2022-09-15T14:14:44.405Z,19.14
2022-09-15T14:17:23.958Z,19.23
2022-09-15T14:19:55.977Z,19.31
2022-09-15T14:22:33.652Z,19.30
2022-09-15T14:25:16.556Z,19.37
2022-09-15T14:27:49.681Z,19.43
2022-09-15T14:30:29.785Z,19.43
2022-09-15T14:33:02.815Z,19.42
2022-09-15T14:35:37.083Z,19.50
2022-09-15T14:38:05.298Z,19.48
2022-09-15T14:40:39.430Z,19.50
2022-09-15T14:43:39.561Z,19.68
2022-09-15T14:46:17.939Z,19.80
2022-09-15T14:48:45.792Z,19.80
2022-09-15T14:51:28.657Z,19.71
2022-09-15T14:54:01.094Z,19.61
2022-09-15T14:56:42.249Z,19.53
2022-09-15T14:59:43.230Z,19.42
2022-09-15T15:02:35.717Z,19.29
2022-09-15T15:05:41.098Z,19.22
2022-09-15T15:08:18.788Z,19.17
2022-09-15T15:10:46.675Z,19.14
2022-09-15T15:13:17.724Z,19.04
2022-09-15T15:15:46.396Z,18.94
2022-09-15T15:18:40.421Z,18.88
2022-09-15T15:21:33.669Z,18.80
2022-09-15T15:24:17.155Z,18.75
2022-09-15T15:26:48.287Z,18.73
2022-09-15T15:29:48.262Z,18.70
2022-09-15T15:32:27.179Z,18.62
2022-09-15T15:35:01.737Z,18.65
2022-09-15T15:37:33.845Z,18.70
2022-09-15T15:40:07.012Z,18.67
2022-09-15T15:42:34.937Z,18.56
2022-09-15T15:45:26.017Z,18.47
2022-09-15T15:47:53.930Z,18.38
2022-09-15T15:50:28.153Z,18.36
2022-09-15T15:52:55.998Z,18.32
2022-09-15T15:55:30.932Z,18.25
2022-09-15T15:57:59.009Z,18.17
2022-09-15T16:00:38.768Z,18.19
2022-09-15T16:03:07.097Z,18.22
2022-09-15T16:05:34.938Z,18.17
2022-09-15T16:08:11.209Z,18.17
2022-09-15T16:10:44.581Z,18.22
2022-09-15T16:13:18.776Z,18.27
2022-09-15T16:15:47.229Z,18.26
2022-09-15T16:18:15.530Z,18.31
2022-09-15T16:20:43.902Z,18.36
2022-09-15T16:23:17.348Z,18.35
2022-09-15T16:25:54.225Z,18.30
2022-09-15T16:28:22.102Z,18.25
2022-09-15T16:30:50.003Z,18.23
2022-09-15T16:33:19.108Z,18.26
2022-09-15T16:35:56.006Z,18.29
2022-09-15T16:38:25.873Z,18.28
2022-09-15T16:40:53.757Z,18.23
2022-09-15T16:43:22.524Z,18.21
2022-09-15T16:45:51.455Z,18.20
2022-09-15T16:48:19.764Z,18.17
2022-09-15T16:51:08.407Z,18.12
2022-09-15T16:53:39.447Z,18.03
2022-09-15T16:56:11.752Z,17.95
2022-09-15T16:58:40.851Z,17.84
2022-09-15T17:01:19.123Z,17.81
2022-09-15T17:03:48.841Z,17.76
2022-09-15T17:06:22.099Z,17.72
2022-09-15T17:08:50.645Z,17.70
2022-09-15T17:11:20.924Z,17.71
2022-09-15T17:13:48.731Z,17.71
2022-09-15T17:16:19.678Z,17.71
2022-09-15T17:18:50.458Z,17.69
2022-09-15T17:21:20.623Z,17.69
2022-09-15T17:23:50.387Z,17.62
2022-09-15T17:26:31.044Z,17.55
2022-09-15T17:28:59.749Z,17.50
2022-09-15T17:31:27.965Z,17.46
2022-09-15T17:33:56.417Z,17.40
2022-09-15T17:36:25.134Z,17.41
2022-09-15T17:38:53.641Z,17.46
2022-09-15T17:41:24.271Z,17.43
2022-09-15T17:43:53.238Z,17.43
2022-09-15T17:46:24.194Z,17.45
2022-09-15T17:48:52.473Z,17.39
2022-09-15T17:51:20.836Z,17.32
2022-09-15T17:53:49.600Z,17.29
2022-09-15T17:56:17.636Z,17.21
2022-09-15T17:58:45.817Z,17.19
2022-09-15T18:01:16.140Z,17.22
2022-09-15T18:03:45.619Z,17.21
2022-09-15T18:06:14.387Z,17.16
2022-09-15T18:08:42.076Z,17.13
2022-09-15T18:11:14.461Z,17.04
2022-09-15T18:13:48.861Z,16.99
2022-09-15T18:16:18.020Z,16.95
2022-09-15T18:18:49.990Z,16.96
2022-09-15T18:21:28.829Z,16.97
2022-09-15T18:23:56.673Z,16.90
2022-09-15T18:26:26.625Z,16.86
2022-09-15T18:28:55.912Z,16.79
2022-09-15T18:31:24.257Z,16.75
2022-09-15T18:33:53.070Z,16.75
2022-09-15T18:36:21.551Z,16.74
2022-09-15T18:38:52.294Z,16.75
2022-09-15T18:41:20.809Z,16.76
2022-09-15T18:43:52.418Z,16.71
2022-09-15T18:46:21.245Z,16.66
2022-09-15T18:48:50.241Z,16.60
2022-09-15T18:51:29.091Z,16.52
2022-09-15T18:54:03.460Z,16.43
2022-09-15T18:56:32.423Z,16.38
2022-09-15T18:59:00.108Z,16.31
2022-09-15T19:01:28.790Z,16.26
2022-09-15T19:04:00.926Z,16.21
2022-09-15T19:06:30.727Z,16.13
2022-09-15T19:08:59.201Z,16.08
2022-09-15T19:11:29.241Z,16.01
2022-09-15T19:14:04.430Z,15.95
2022-09-15T19:16:56.594Z,15.90
2022-09-15T19:19:30.126Z,15.84
2022-09-15T19:22:01.724Z,15.82
2022-09-15T19:24:37.015Z,15.79
2022-09-15T19:27:09.737Z,15.75
2022-09-15T19:29:41.547Z,15.70
2022-09-15T19:32:20.255Z,15.67
2022-09-15T19:34:50.024Z,15.62
2022-09-15T19:37:20.986Z,15.57
2022-09-15T19:40:03.213Z,15.52
2022-09-15T19:42:32.644Z,15.49
2022-09-15T19:45:00.256Z,15.44
2022-09-15T19:47:27.966Z,15.40
2022-09-15T19:49:55.701Z,15.35
2022-09-15T19:52:23.528Z,15.32
2022-09-15T19:54:51.230Z,15.31
2022-09-15T19:57:19.623Z,15.31
2022-09-15T19:59:47.268Z,15.31
2022-09-15T20:02:15.168Z,15.31
2022-09-15T20:04:43.469Z,15.28
2022-09-15T20:07:12.460Z,15.23
2022-09-15T20:09:40.535Z,15.19
2022-09-15T20:12:08.246Z,15.15
2022-09-15T20:14:35.993Z,15.09
2022-09-15T20:17:04.289Z,15.05
2022-09-15T20:19:32.528Z,15.01
2022-09-15T20:22:00.197Z,14.97
2022-09-15T20:24:27.890Z,14.95
2022-09-15T20:26:55.520Z,14.92
2022-09-15T20:29:23.790Z,14.84
2022-09-15T20:31:51.548Z,14.78
2022-09-15T20:34:19.304Z,14.73
2022-09-15T20:36:46.996Z,14.68
2022-09-15T20:39:18.729Z,14.63
2022-09-15T20:41:46.454Z,14.56
2022-09-15T20:44:14.991Z,14.50
2022-09-15T20:46:43.191Z,14.48
2022-09-15T20:49:12.276Z,14.44
2022-09-15T20:51:40.153Z,14.36
2022-09-15T20:54:07.875Z,14.34
2022-09-15T20:56:35.856Z,14.30
2022-09-15T20:59:05.194Z,14.22
2022-09-15T21:01:36.654Z,14.18
2022-09-15T21:04:07.550Z,14.13
2022-09-15T21:06:36.157Z,14.10
2022-09-15T21:09:05.161Z,14.08
2022-09-15T21:11:33.547Z,14.05
2022-09-15T21:14:01.632Z,14.00
2022-09-15T21:16:30.057Z,13.95
2022-09-15T21:18:58.776Z,13.94
2022-09-15T21:21:30.188Z,13.93
2022-09-15T21:24:01.812Z,13.93
2022-09-15T21:26:31.978Z,13.93
2022-09-15T21:29:00.090Z,13.90
2022-09-15T21:31:33.316Z,13.88
2022-09-15T21:34:00.954Z,13.85
2022-09-15T21:36:31.634Z,13.83
2022-09-15T21:38:59.628Z,13.84
2022-09-15T21:41:30.019Z,13.85
2022-09-15T21:43:59.385Z,13.81
2022-09-15T21:46:30.762Z,13.78
2022-09-15T21:48:59.617Z,13.75
2022-09-15T21:51:29.815Z,13.72
2022-09-15T21:53:59.356Z,13.67
2022-09-15T21:56:29.825Z,13.65
2022-09-15T21:58:58.045Z,13.63
2022-09-15T22:01:29.787Z,13.61
2022-09-15T22:04:06.559Z,13.59
2022-09-15T22:06:40.218Z,13.58
2022-09-15T22:09:21.714Z,13.58
2022-09-15T22:11:49.494Z,13.58
2022-09-15T22:14:17.711Z,13.57
2022-09-15T22:16:45.422Z,13.56
2022-09-15T22:19:13.288Z,13.58
2022-09-15T22:21:42.037Z,13.57
2022-09-15T22:24:13.051Z,13.59
2022-09-15T22:26:42.681Z,13.56
2022-09-15T22:29:11.469Z,13.53
2022-09-15T22:31:39.314Z,13.52
2022-09-15T22:34:07.046Z,13.51
2022-09-15T22:36:34.978Z,13.51
2022-09-15T22:39:05.234Z,13.49
2022-09-15T22:41:39.622Z,13.49
2022-09-15T22:44:17.893Z,13.49
2022-09-15T22:46:46.047Z,13.51
2022-09-15T22:49:13.878Z,13.48
2022-09-15T22:51:41.846Z,13.44
2022-09-15T22:54:09.561Z,13.42
2022-09-15T22:56:37.252Z,13.40
2022-09-15T22:59:04.895Z,13.38
2022-09-15T23:01:32.522Z,13.35
2022-09-15T23:04:02.181Z,13.32
2022-09-15T23:06:33.593Z,13.32
2022-09-15T23:09:06.105Z,13.35
2022-09-15T23:11:34.669Z,13.38
2022-09-15T23:14:03.169Z,13.38
2022-09-15T23:16:31.948Z,13.30
2022-09-15T23:19:00.126Z,13.26
2022-09-15T23:21:28.473Z,13.21
2022-09-15T23:23:56.722Z,13.17
2022-09-15T23:26:25.713Z,13.17
2022-09-15T23:28:53.823Z,13.14
2022-09-15T23:31:22.620Z,13.14
2022-09-15T23:33:50.576Z,13.12
2022-09-15T23:36:19.637Z,13.09
2022-09-15T23:38:48.646Z,13.07
2022-09-15T23:41:17.599Z,13.04
2022-09-15T23:43:46.310Z,13.00
2022-09-15T23:46:15.157Z,12.99
2022-09-15T23:48:43.088Z,12.96
2022-09-15T23:51:10.782Z,12.91
2022-09-15T23:53:38.555Z,12.86
2022-09-15T23:56:06.961Z,12.79
2022-09-15T23:58:34.933Z,12.74
